Time;durP1;ratioP1;P1;durP2;ratioP2;P2;SDS_P1;SDS_P2;PMS_P1;PMS_P2;Temp;Humidity;BMP_temperature;BMP_pressure;BME280_temperature;BME280_humidity;BME280_pressure;Samples;Min_cycle;Max_cycle;Signal;HPM_P1;HPM_P2
2023/02/08 00:01:28;;;;;;;22.40;12.33;;;1.30;99.90;;;1.29;69.13;102916.13;5046775;28;20650;-66
2023/02/08 00:03:57;;;;;;;24.00;11.90;;;1.30;99.90;;;1.32;68.63;102921.41;5041691;28;20654;-66
2023/02/08 00:06:25;;;;;;;19.10;10.80;;;1.30;99.90;;;1.33;68.72;102922.31;5043682;28;20217;-68
2023/02/08 00:08:54;;;;;;;19.50;10.63;;;1.30;99.90;;;1.33;68.69;102923.19;5049869;28;20237;-64
2023/02/08 00:11:22;;;;;;;18.87;11.57;;;1.30;99.90;;;1.34;68.22;102930.03;5050986;28;20209;-65
2023/02/08 00:13:51;;;;;;;19.07;11.20;;;1.30;99.90;;;1.34;68.39;102924.94;5048282;28;20638;-67
2023/02/08 00:16:21;;;;;;;19.83;10.90;;;1.30;99.90;;;1.33;68.08;102925.72;5048640;28;20244;-63
2023/02/08 00:18:49;;;;;;;21.83;12.13;;;1.30;99.90;;;1.32;68.34;102931.56;5050675;28;20246;-66
2023/02/08 00:21:18;;;;;;;21.90;10.97;;;1.30;99.90;;;1.30;68.91;102930.56;5049238;28;20667;-63
2023/02/08 00:23:47;;;;;;;20.30;11.20;;;1.30;99.90;;;1.33;68.55;102932.47;5046993;28;20214;-65
2023/02/08 00:26:16;;;;;;;20.63;11.20;;;1.30;99.90;;;1.32;68.75;102930.69;5051342;28;20221;-67
2023/02/08 00:28:45;;;;;;;19.93;11.80;;;1.30;99.90;;;1.31;68.67;102939.97;5048398;28;20225;-64
2023/02/08 00:31:13;;;;;;;22.40;11.80;;;1.30;99.90;;;1.30;68.14;102933.13;5049984;28;20624;-66
2023/02/08 00:33:43;;;;;;;18.07;10.90;;;1.30;99.90;;;1.28;68.02;102938.84;5050104;28;20216;-65
2023/02/08 00:36:13;;;;;;;20.33;11.37;;;1.30;99.90;;;1.26;68.32;102927.72;5049619;28;20206;-64
2023/02/08 00:38:41;;;;;;;21.17;11.63;;;1.20;99.90;;;1.22;68.53;102923.19;5048409;28;20213;-64
2023/02/08 00:41:10;;;;;;;24.57;11.90;;;1.30;99.90;;;1.20;68.67;102936.63;5043376;28;20207;-64
2023/02/08 00:43:39;;;;;;;25.13;12.33;;;1.20;99.90;;;1.23;68.72;102935.09;5050026;28;20210;-66
2023/02/08 00:46:08;;;;;;;20.40;12.67;;;1.30;99.90;;;1.23;68.99;102932.56;5042867;28;20709;-64
2023/02/08 00:48:36;;;;;;;20.47;11.53;;;1.30;99.90;;;1.24;68.77;102947.91;5053904;28;20194;-69
2023/02/08 00:51:09;;;;;;;19.63;11.87;;;1.20;99.90;;;1.24;68.83;102937.75;5064404;28;20189;-72
2023/02/08 00:53:39;;;;;;;21.23;11.83;;;1.20;99.90;;;1.26;68.85;102946.38;5065250;28;20204;-65
2023/02/08 00:56:08;;;;;;;20.43;12.50;;;1.20;99.90;;;1.25;68.82;102939.50;5069976;28;20198;-66
2023/02/08 00:58:37;;;;;;;22.80;11.50;;;1.20;99.90;;;1.26;68.73;102936.22;5072152;28;20202;-66
2023/02/08 01:01:07;;;;;;;21.93;12.17;;;1.20;99.90;;;1.29;68.56;102938.06;5072910;28;20198;-66
2023/02/08 01:03:39;;;;;;;22.70;12.37;;;1.20;99.90;;;1.29;68.75;102941.53;5068423;28;20232;-67
2023/02/08 01:06:11;;;;;;;21.73;12.60;;;1.30;99.90;;;1.27;68.17;102939.63;5065554;28;20241;-66
2023/02/08 01:08:39;;;;;;;19.87;12.43;;;1.30;99.90;;;1.26;69.10;102943.84;5066551;28;20202;-67
2023/02/08 01:11:10;;;;;;;24.23;12.50;;;1.20;99.90;;;1.23;68.86;102941.06;5062576;28;20201;-66
2023/02/08 01:13:39;;;;;;;25.03;12.63;;;1.20;99.90;;;1.19;68.75;102934.88;5065311;28;20206;-66
2023/02/08 01:16:11;;;;;;;21.40;11.93;;;1.20;99.90;;;1.20;68.61;102941.72;5065319;28;20213;-66
2023/02/08 01:18:40;;;;;;;23.47;12.77;;;1.20;99.90;;;1.20;68.31;102939.16;5065092;28;20300;-67
2023/02/08 01:21:13;;;;;;;20.13;11.90;;;1.20;99.90;;;1.18;68.29;102938.19;5066067;28;20206;-66
2023/02/08 01:23:44;;;;;;;26.07;12.87;;;1.20;99.90;;;1.17;68.93;102938.06;5067801;28;20202;-68
2023/02/08 01:26:14;;;;;;;21.20;12.33;;;1.20;99.90;;;1.17;68.52;102940.59;5060205;28;20218;-68
2023/02/08 01:28:43;;;;;;;22.03;12.77;;;1.20;99.90;;;1.17;68.91;102944.03;5069266;28;20260;-65
2023/02/08 01:31:14;;;;;;;21.23;13.30;;;1.20;99.90;;;1.17;68.68;102944.03;5071264;28;20299;-66
2023/02/08 01:33:43;;;;;;;19.93;12.00;;;1.20;99.90;;;1.18;68.36;102942.41;5069557;28;20211;-65
2023/02/08 01:36:14;;;;;;;23.27;12.23;;;1.20;99.90;;;1.15;68.90;102942.16;5074862;28;20206;-67
2023/02/08 01:38:43;;;;;;;31.90;13.80;;;1.10;99.90;;;1.14;68.60;102950.53;5074132;28;20198;-66
2023/02/08 01:41:16;;;;;;;23.90;12.67;;;1.10;99.90;;;1.11;68.73;102947.78;5075202;28;20206;-66
2023/02/08 01:44:09;;;;;;;23.20;12.17;;;1.10;99.90;;;1.08;68.61;102942.50;5072416;28;20194;-65
2023/02/08 01:46:40;;;;;;;26.70;12.80;;;1.10;99.90;;;1.06;68.62;102944.00;5075980;28;20289;-63
2023/02/08 01:49:12;;;;;;;20.30;12.37;;;1.10;99.90;;;1.05;68.99;102944.78;5067528;28;20205;-65
2023/02/08 01:51:52;;;;;;;25.03;13.97;;;1.00;99.90;;;1.00;69.30;102941.03;5075486;28;20206;-66
2023/02/08 01:54:24;;;;;;;21.77;12.30;;;1.00;99.90;;;1.02;69.39;102947.09;5075506;28;20198;-65
2023/02/08 01:56:53;;;;;;;22.47;12.77;;;1.00;99.90;;;1.00;69.22;102944.47;5077152;28;20190;-66
2023/02/08 01:59:25;;;;;;;24.43;13.10;;;1.00;99.90;;;1.00;69.57;102947.00;5067087;28;20216;-67
2023/02/08 02:01:57;;;;;;;25.73;13.50;;;1.00;99.90;;;1.00;69.51;102943.59;5056828;28;20196;-61
2023/02/08 02:04:26;;;;;;;23.27;12.70;;;1.00;99.90;;;1.03;69.21;102941.25;5052233;28;20256;-62
2023/02/08 02:07:00;;;;;;;24.30;12.33;;;1.00;99.90;;;1.04;69.34;102948.13;5051185;28;20229;-62
2023/02/08 02:09:41;;;;;;;21.43;12.80;;;1.00;99.90;;;1.00;69.73;102949.53;5052873;28;20202;-64
2023/02/08 02:12:11;;;;;;;20.53;11.47;;;1.00;99.90;;;1.00;69.30;102951.19;5052329;28;20198;-65
2023/02/08 02:14:40;;;;;;;22.00;12.07;;;1.00;99.90;;;0.97;69.56;102954.38;5048649;28;20218;-64
2023/02/08 02:17:10;;;;;;;21.80;13.17;;;1.00;99.90;;;0.98;69.29;102962.88;5046232;28;20272;-61
2023/02/08 02:19:51;;;;;;;23.77;12.23;;;1.00;99.90;;;0.98;69.50;102961.22;5053438;28;20682;-62
2023/02/08 02:23:20;;;;;;;20.13;12.40;;;1.00;99.90;;;0.96;69.89;102958.59;5049720;28;20589;-64
2023/02/08 02:26:38;;;;;;;21.63;11.77;;;1.00;99.90;;;0.95;69.75;102964.41;5042624;28;20236;-62
2023/02/08 02:30:30;;;;;;;20.13;10.83;;;1.00;99.90;;;0.91;69.58;102975.09;5052551;28;20230;-65
2023/02/08 02:33:23;;;;;;;21.93;10.80;;;1.00;99.90;;;0.91;69.33;102975.09;4970898;28;20244;-63
2023/02/08 02:36:00;;;;;;;20.43;10.73;;;0.90;99.90;;;0.91;69.94;102979.31;5049426;28;20237;-62
2023/02/08 02:38:44;;;;;;;20.60;11.53;;;1.00;99.90;;;0.88;69.46;102972.34;5046686;28;20637;-61
2023/02/08 02:44:19;;;;;;;21.03;11.17;;;0.90;99.90;;;0.86;69.77;102978.97;5043588;28;20205;-64
2023/02/08 02:47:00;;;;;;;20.13;11.07;;;0.90;99.90;;;0.83;69.83;102973.66;5050818;28;20272;-61
2023/02/08 02:49:39;;;;;;;20.17;11.60;;;0.90;99.90;;;0.79;69.51;102975.84;5052853;28;20657;-62
2023/02/08 02:52:12;;;;;;;21.47;10.97;;;0.90;99.90;;;0.79;69.67;102986.88;5044303;28;20202;-66
2023/02/08 02:54:48;;;;;;;21.17;11.20;;;0.80;99.90;;;0.75;69.95;102984.91;5051586;28;20678;-64
2023/02/08 02:57:21;;;;;;;19.53;11.70;;;0.80;99.90;;;0.77;69.80;102992.59;5052786;28;20208;-64
2023/02/08 02:59:50;;;;;;;20.00;11.10;;;0.80;99.90;;;0.80;70.29;102988.66;5050176;28;20256;-66
2023/02/08 03:02:18;;;;;;;22.53;11.10;;;0.80;99.90;;;0.83;70.20;102991.44;5051484;28;20646;-65
2023/02/08 03:04:56;;;;;;;18.07;10.73;;;0.90;99.90;;;0.86;69.81;102988.25;5050312;28;20210;-62
2023/02/08 03:07:51;;;;;;;21.10;11.37;;;0.80;99.90;;;0.88;70.15;102991.75;5040861;28;20217;-63
2023/02/08 03:10:41;;;;;;;23.73;12.77;;;0.90;99.90;;;0.88;69.51;102981.59;5048390;28;20202;-62
2023/02/08 03:13:23;;;;;;;20.50;10.83;;;0.90;99.90;;;0.88;70.02;102982.50;5050838;28;20198;-60
2023/02/08 03:16:08;;;;;;;20.33;11.03;;;0.90;99.90;;;0.87;69.61;102987.47;5048684;28;20213;-62
2023/02/08 03:18:47;;;;;;;18.87;10.93;;;0.90;99.90;;;0.86;69.94;102989.13;5052424;28;20263;-64
2023/02/08 03:21:29;;;;;;;21.67;11.73;;;0.90;99.90;;;0.85;69.66;102989.91;5047833;28;20347;-62
2023/02/08 03:24:06;;;;;;;23.70;12.33;;;0.90;99.90;;;0.83;69.97;102988.88;5047418;28;20198;-62
2023/02/08 03:26:43;;;;;;;19.77;11.20;;;0.90;99.90;;;0.87;69.62;102995.97;5050014;28;20217;-61
2023/02/08 03:29:22;;;;;;;20.80;11.23;;;0.90;99.90;;;0.85;69.65;102991.56;5051333;28;20225;-65
2023/02/08 03:31:57;;;;;;;15.17;10.50;;;0.90;99.90;;;0.83;69.67;103001.56;5050800;28;20318;-61
2023/02/08 03:34:33;;;;;;;18.17;10.53;;;0.80;99.90;;;0.83;69.77;102998.16;5049601;28;20689;-63
2023/02/08 03:37:11;;;;;;;21.87;10.87;;;0.80;99.90;;;0.83;69.70;102993.09;5049682;28;20662;-63
2023/02/08 03:39:42;;;;;;;20.73;11.27;;;0.90;99.90;;;0.85;69.81;102999.16;5048913;28;20198;-64
2023/02/08 03:42:17;;;;;;;21.97;12.03;;;0.80;99.90;;;0.85;69.72;103004.25;5047675;28;20339;-63
2023/02/08 03:44:53;;;;;;;20.17;12.17;;;0.90;99.90;;;0.84;70.13;103008.41;5051975;28;20202;-62
2023/02/08 03:47:28;;;;;;;19.70;11.23;;;0.80;99.90;;;0.81;69.69;103005.66;5041607;28;20296;-65
2023/02/08 03:50:01;;;;;;;23.67;12.37;;;0.90;99.90;;;0.75;70.23;103004.31;5046915;28;20636;-64
2023/02/08 03:52:33;;;;;;;20.33;11.00;;;0.80;99.90;;;0.68;70.26;103006.38;5051351;28;20620;-63
2023/02/08 03:55:06;;;;;;;21.27;11.67;;;0.80;99.90;;;0.65;70.80;103007.78;5049827;28;20738;-62
2023/02/08 03:57:42;;;;;;;16.57;10.07;;;0.70;99.90;;;0.61;70.53;103003.25;5046079;28;20244;-64
2023/02/08 04:00:15;;;;;;;20.63;11.23;;;0.70;99.90;;;0.63;71.05;103009.34;5047052;28;20616;-64
2023/02/08 04:02:54;;;;;;;20.23;10.90;;;0.70;99.90;;;0.65;71.16;103012.88;5049218;28;20255;-62
2023/02/08 04:05:23;;;;;;;21.83;11.37;;;0.70;99.90;;;0.67;71.06;103016.44;5050290;28;20201;-64
2023/02/08 04:07:53;;;;;;;19.33;10.57;;;0.70;99.90;;;0.65;70.87;103015.41;5047812;28;20230;-63
2023/02/08 04:10:22;;;;;;;17.80;10.97;;;0.70;99.90;;;0.63;71.42;103010.22;5049378;28;20256;-62
2023/02/08 04:12:50;;;;;;;19.40;11.33;;;0.70;99.90;;;0.65;71.04;103012.88;5046670;28;20266;-63
2023/02/08 04:15:20;;;;;;;18.37;11.33;;;0.70;99.90;;;0.67;71.16;103021.50;5048667;28;20205;-65
2023/02/08 04:17:49;;;;;;;22.70;10.73;;;0.70;99.90;;;0.63;70.96;103012.75;5044340;28;20595;-64
2023/02/08 04:20:17;;;;;;;17.17;11.03;;;0.80;99.90;;;0.63;70.92;103019.50;5044417;28;20224;-64
2023/02/08 04:22:46;;;;;;;18.13;11.30;;;0.70;99.90;;;0.57;71.27;103024.09;5050424;28;20280;-61
2023/02/08 04:25:16;;;;;;;19.50;11.70;;;0.70;99.90;;;0.45;71.50;103007.16;5049837;28;20206;-65
2023/02/08 04:27:45;;;;;;;17.87;11.57;;;0.60;99.90;;;0.42;71.58;103022.13;5038751;28;20690;-63
2023/02/08 04:30:14;;;;;;;24.93;12.30;;;0.60;99.90;;;0.37;71.80;103020.91;5043970;28;20230;-63
2023/02/08 04:32:42;;;;;;;19.37;11.20;;;0.60;99.90;;;0.35;72.00;103016.47;5051517;28;20210;-60
2023/02/08 04:35:11;;;;;;;20.40;11.60;;;0.50;99.90;;;0.37;72.15;103020.91;5048257;28;20201;-63
2023/02/08 04:37:39;;;;;;;22.87;12.50;;;0.50;99.90;;;0.38;71.96;103020.13;5049664;28;20206;-64
2023/02/08 04:40:10;;;;;;;20.40;12.23;;;0.50;99.90;;;0.39;72.35;103021.00;5045003;28;20247;-61
2023/02/08 04:42:39;;;;;;;22.53;13.37;;;0.50;99.90;;;0.43;72.35;103023.91;5045852;28;20214;-61
2023/02/08 04:45:10;;;;;;;24.03;13.33;;;0.50;99.90;;;0.47;72.26;103027.56;5050091;28;20209;-63
2023/02/08 04:47:38;;;;;;;19.17;11.67;;;0.60;99.90;;;0.48;72.26;103024.28;5044056;28;20233;-63
2023/02/08 04:50:07;;;;;;;20.17;12.67;;;0.60;99.90;;;0.49;72.23;103020.97;5050200;28;20216;-64
2023/02/08 04:52:36;;;;;;;17.43;12.23;;;0.60;99.90;;;0.52;72.29;103028.81;5050131;28;20233;-64
2023/02/08 04:55:05;;;;;;;22.83;13.57;;;0.60;99.90;;;0.51;72.62;103024.50;5051645;28;20616;-64
2023/02/08 04:57:34;;;;;;;24.23;12.57;;;0.70;99.90;;;0.51;72.40;103021.06;5049814;28;20209;-63
2023/02/08 05:00:05;;;;;;;24.53;13.43;;;0.70;99.90;;;0.52;72.32;103030.47;5046904;28;20705;-63
2023/02/08 05:02:33;;;;;;;23.77;13.03;;;0.70;99.90;;;0.53;72.38;103029.69;5048451;28;20198;-65
2023/02/08 05:05:02;;;;;;;24.33;13.53;;;0.70;99.90;;;0.52;72.47;103031.34;5047643;28;20213;-62
2023/02/08 05:07:31;;;;;;;25.13;14.47;;;0.70;99.90;;;0.53;72.25;103037.31;5053145;28;20221;-64
2023/02/08 05:09:59;;;;;;;25.50;13.80;;;0.70;99.90;;;0.52;72.31;103025.41;5052466;28;20272;-63
2023/02/08 05:12:28;;;;;;;25.23;13.10;;;0.70;99.90;;;0.55;72.52;103031.56;5054335;28;20224;-67
2023/02/08 05:14:57;;;;;;;24.37;13.83;;;0.70;99.90;;;0.57;72.45;103036.78;5053810;28;20737;-69
2023/02/08 05:17:26;;;;;;;29.70;13.90;;;0.70;99.90;;;0.56;72.07;103037.56;5047815;28;20228;-67
2023/02/08 05:19:55;;;;;;;27.80;13.83;;;0.70;99.90;;;0.55;72.53;103040.84;5053799;28;20209;-64
2023/02/08 05:22:24;;;;;;;29.73;15.13;;;0.70;99.90;;;0.56;72.71;103047.69;5051498;28;20209;-68
2023/02/08 05:24:52;;;;;;;25.73;15.40;;;0.70;99.90;;;0.55;72.91;103056.06;5053777;28;20202;-69
2023/02/08 05:27:21;;;;;;;26.67;15.20;;;0.70;99.90;;;0.53;72.81;103057.59;5055031;28;20288;-69
2023/02/08 05:29:49;;;;;;;25.87;14.30;;;0.70;99.90;;;0.48;72.34;103053.06;5053368;28;20234;-69
2023/02/08 05:32:18;;;;;;;26.90;15.60;;;0.70;99.90;;;0.47;72.37;103052.94;5057117;28;20201;-64
2023/02/08 05:34:48;;;;;;;27.30;15.07;;;0.70;99.90;;;0.48;72.70;103059.78;5054989;28;20276;-63
2023/02/08 05:37:16;;;;;;;24.73;14.83;;;0.70;99.90;;;0.47;72.51;103058.88;5048203;28;20215;-64
2023/02/08 05:39:45;;;;;;;24.80;15.60;;;0.70;99.90;;;0.48;72.37;103069.94;5053383;28;20214;-64
2023/02/08 05:42:13;;;;;;;31.53;16.27;;;0.70;99.90;;;0.44;73.08;103068.81;5072711;28;20210;-64
2023/02/08 05:44:42;;;;;;;28.87;17.37;;;0.70;99.90;;;0.40;72.77;103066.78;5078056;28;20189;-66
2023/02/08 05:47:10;;;;;;;33.20;17.57;;;0.60;99.90;;;0.42;72.88;103072.88;5061120;28;20229;-62
2023/02/08 05:49:39;;;;;;;31.53;16.23;;;0.60;99.90;;;0.39;72.52;103070.09;5050603;28;21938;-65
2023/02/08 05:52:09;;;;;;;30.60;15.73;;;0.60;99.90;;;0.39;73.02;103075.16;5050955;28;20210;-65
2023/02/08 05:54:37;;;;;;;25.77;15.13;;;0.60;99.90;;;0.38;72.87;103078.47;5053390;28;20201;-67
2023/02/08 05:57:06;;;;;;;24.30;14.93;;;0.60;99.90;;;0.38;72.83;103069.97;5050794;28;20284;-64
2023/02/08 05:59:35;;;;;;;28.53;15.77;;;0.60;99.90;;;0.40;72.31;103082.00;5069248;28;20182;-66
2023/02/08 06:02:03;;;;;;;28.53;15.23;;;0.60;99.90;;;0.42;72.39;103090.63;5071259;28;20182;-66
2023/02/08 06:04:32;;;;;;;25.17;14.87;;;0.60;99.90;;;0.44;72.66;103094.19;5077299;28;20228;-66
2023/02/08 06:07:01;;;;;;;24.20;14.47;;;0.70;99.90;;;0.47;72.35;103094.38;5078161;28;20240;-66
2023/02/08 06:09:32;;;;;;;26.00;15.67;;;0.60;99.90;;;0.52;71.92;103098.97;5075136;28;20328;-64
2023/02/08 06:12:00;;;;;;;31.67;15.63;;;0.70;99.90;;;0.56;72.27;103103.50;5066378;28;20193;-64
2023/02/08 06:14:29;;;;;;;30.43;15.83;;;0.70;99.90;;;0.57;72.00;103101.09;5072997;28;20208;-66
2023/02/08 06:16:58;;;;;;;25.83;14.77;;;0.80;99.90;;;0.61;72.28;103102.22;5062315;28;20209;-63
2023/02/08 06:19:26;;;;;;;26.27;14.53;;;0.70;99.90;;;0.63;71.92;103101.56;5051844;28;20202;-67
2023/02/08 06:21:55;;;;;;;27.80;15.60;;;0.80;99.90;;;0.66;71.91;103100.91;5050976;28;20322;-65
2023/02/08 06:24:24;;;;;;;26.83;15.27;;;0.80;99.90;;;0.67;71.65;103103.56;5052671;28;20205;-65
2023/02/08 06:26:53;;;;;;;34.13;15.73;;;0.80;99.90;;;0.69;72.03;103111.28;5050663;28;20260;-64
2023/02/08 06:29:22;;;;;;;30.17;15.90;;;0.80;99.90;;;0.72;71.59;103106.47;5049463;28;20236;-64
2023/02/08 06:31:51;;;;;;;25.17;14.93;;;0.80;99.90;;;0.71;71.41;103109.78;5049511;28;20291;-67
2023/02/08 06:34:19;;;;;;;28.07;15.70;;;0.90;99.90;;;0.72;71.64;103111.53;5047616;28;20236;-62
2023/02/08 06:36:48;;;;;;;30.57;16.37;;;0.90;99.90;;;0.72;71.45;103109.00;5050028;28;20202;-63
2023/02/08 06:39:16;;;;;;;27.90;15.30;;;0.90;99.90;;;0.73;71.37;103108.22;5052790;28;20720;-65
2023/02/08 06:41:45;;;;;;;30.30;15.67;;;0.90;99.90;;;0.72;71.93;103109.88;5051010;28;20686;-67
2023/02/08 06:44:15;;;;;;;28.47;16.33;;;0.90;99.90;;;0.75;72.24;103121.94;5049014;28;20237;-66
2023/02/08 06:46:43;;;;;;;25.63;14.80;;;0.90;99.90;;;0.74;71.81;103117.63;5047356;28;20233;-64
2023/02/08 06:49:12;;;;;;;26.43;14.17;;;0.90;99.90;;;0.73;71.68;103124.34;5038445;28;20812;-64
2023/02/08 06:51:40;;;;;;;22.60;13.53;;;0.90;99.90;;;0.69;71.95;103122.31;5049050;28;20206;-67
2023/02/08 06:54:09;;;;;;;24.13;14.17;;;0.90;99.90;;;0.71;71.49;103130.06;5050327;28;20237;-67
2023/02/08 06:56:37;;;;;;;23.13;13.87;;;0.90;99.90;;;0.71;71.83;103140.22;5049524;28;20297;-64
2023/02/08 06:59:06;;;;;;;25.43;14.13;;;0.90;99.90;;;0.73;72.01;103133.59;5052793;28;20591;-66
2023/02/08 07:01:36;;;;;;;27.33;15.33;;;0.90;99.90;;;0.72;71.97;103139.44;5050922;28;20277;-68
2023/02/08 07:04:05;;;;;;;26.47;14.53;;;0.90;99.90;;;0.72;71.74;103137.78;5059893;28;20206;-69
2023/02/08 07:06:34;;;;;;;25.97;14.20;;;1.00;99.90;;;0.74;71.59;103145.56;5056816;28;20548;-68
2023/02/08 07:09:03;;;;;;;25.77;13.93;;;0.90;99.90;;;0.73;71.95;103153.91;5060447;28;20232;-67
2023/02/08 07:11:32;;;;;;;24.60;13.47;;;0.90;99.90;;;0.72;71.89;103160.63;5055523;28;20236;-68
2023/02/08 07:14:01;;;;;;;26.47;13.30;;;0.90;99.90;;;0.72;71.72;103164.81;5057472;28;20224;-69
2023/02/08 07:16:29;;;;;;;25.90;14.50;;;0.90;99.90;;;0.73;71.79;103176.75;5057471;28;20202;-66
2023/02/08 07:18:59;;;;;;;22.17;12.60;;;0.90;99.90;;;0.69;71.58;103177.28;5065279;28;20190;-67
2023/02/08 07:21:28;;;;;;;21.80;13.07;;;0.90;99.90;;;0.68;71.50;103173.84;5072676;28;20197;-70
2023/02/08 07:23:56;;;;;;;20.83;12.03;;;0.90;99.90;;;0.68;71.18;103176.38;5068112;28;20193;-68
2023/02/08 07:26:25;;;;;;;25.03;12.30;;;0.80;99.90;;;0.68;71.35;103170.44;5066112;28;20210;-68
2023/02/08 07:28:54;;;;;;;18.80;11.13;;;0.80;99.90;;;0.64;71.61;103170.97;5066921;28;20226;-69
2023/02/08 07:31:22;;;;;;;21.13;12.03;;;0.80;99.90;;;0.61;71.58;103168.19;5054113;28;20248;-71
2023/02/08 07:33:51;;;;;;;21.03;11.90;;;0.80;99.90;;;0.61;71.92;103163.09;5060606;28;20221;-67
2023/02/08 07:36:20;;;;;;;22.37;12.53;;;0.80;99.90;;;0.58;71.78;103161.19;5049225;28;20225;-67
2023/02/08 07:38:49;;;;;;;20.83;12.90;;;0.80;99.90;;;0.63;71.86;103166.66;5058696;28;20224;-69
2023/02/08 07:41:17;;;;;;;26.10;12.60;;;0.80;99.90;;;0.60;72.14;103163.88;5061696;28;20240;-66
2023/02/08 07:43:46;;;;;;;23.10;14.23;;;0.80;99.90;;;0.61;72.01;103156.38;5067297;28;20217;-69
2023/02/08 07:46:17;;;;;;;22.40;12.93;;;0.80;99.90;;;0.63;72.22;103153.97;5069585;28;20665;-69
2023/02/08 07:48:48;;;;;;;20.90;12.50;;;0.90;99.90;;;0.66;72.84;103159.25;5065545;28;20221;-68
2023/02/08 07:51:16;;;;;;;25.77;14.17;;;0.90;99.90;;;0.72;72.55;103162.28;5062501;28;20584;-70
2023/02/08 07:53:46;;;;;;;26.93;13.47;;;0.90;99.90;;;0.79;72.58;103164.53;5068066;28;20212;-68
2023/02/08 07:56:14;;;;;;;22.67;12.93;;;1.00;99.90;;;0.86;72.53;103156.66;5063247;28;20206;-73
2023/02/08 07:58:43;;;;;;;23.17;13.10;;;1.10;99.90;;;0.94;72.65;103162.31;5066987;28;20182;-69
2023/02/08 08:01:12;;;;;;;23.57;12.40;;;1.10;99.90;;;1.02;71.60;103162.91;5063813;28;20313;-72
2023/02/08 08:03:51;;;;;;;18.50;11.77;;;1.10;99.90;;;1.06;71.60;103164.91;5075328;28;20208;-68
2023/02/08 08:06:21;;;;;;;20.50;11.90;;;1.10;99.90;;;1.11;71.26;103163.63;5068370;28;20202;-67
2023/02/08 08:08:52;;;;;;;22.40;11.97;;;1.20;99.90;;;1.18;71.61;103171.84;5068937;28;20261;-70
2023/02/08 08:11:22;;;;;;;21.63;11.83;;;1.30;99.90;;;1.25;71.10;103168.09;5064895;28;20216;-71
2023/02/08 08:13:51;;;;;;;16.17;10.23;;;1.30;99.90;;;1.25;70.93;103170.63;5061713;28;20195;-73
2023/02/08 08:16:21;;;;;;;20.33;10.67;;;1.40;99.90;;;1.29;70.40;103171.75;5057661;28;20256;-71
2023/02/08 08:18:50;;;;;;;17.47;9.77;;;1.40;99.90;;;1.32;70.77;103172.88;5061567;28;20248;-69
2023/02/08 08:21:18;;;;;;;16.97;9.80;;;1.40;99.90;;;1.34;70.25;103170.47;5066041;28;20220;-68
2023/02/08 08:23:47;;;;;;;16.97;10.60;;;1.50;99.90;;;1.36;70.52;103174.00;5074065;28;20209;-70
2023/02/08 08:26:21;;;;;;;17.57;10.87;;;1.50;99.90;;;1.36;69.66;103172.38;5074239;28;20232;-69
2023/02/08 08:28:50;;;;;;;17.77;10.60;;;1.50;99.90;;;1.36;70.60;103172.38;5071510;28;20264;-70
2023/02/08 08:31:20;;;;;;;18.47;10.40;;;1.50;99.90;;;1.37;70.24;103171.59;5070876;28;20238;-71
2023/02/08 08:33:49;;;;;;;17.57;9.47;;;1.50;99.90;;;1.41;70.03;103176.13;5073435;28;20213;-72
2023/02/08 08:36:18;;;;;;;15.80;9.83;;;1.50;99.90;;;1.41;70.65;103176.13;5075899;28;20202;-69
2023/02/08 08:38:47;;;;;;;17.80;10.73;;;1.60;99.90;;;1.48;70.11;103179.16;5075205;28;20248;-72
2023/02/08 08:41:17;;;;;;;17.67;11.07;;;1.60;99.90;;;1.51;70.35;103172.63;5074828;28;20201;-68
2023/02/08 08:43:47;;;;;;;22.60;14.83;;;1.60;99.90;;;1.52;70.10;103178.59;5071214;28;20443;-69
2023/02/08 08:46:16;;;;;;;23.03;12.10;;;1.70;99.90;;;1.56;70.68;103184.03;5071995;28;20239;-73
2023/02/08 08:48:46;;;;;;;17.67;11.17;;;1.70;99.90;;;1.54;69.49;103174.50;5072753;28;20214;-68
2023/02/08 08:51:14;;;;;;;20.63;12.23;;;1.60;99.90;;;1.53;70.15;103181.25;5073778;28;20287;-68
2023/02/08 08:53:43;;;;;;;22.00;11.63;;;1.70;99.90;;;1.54;69.38;103183.00;5065748;28;20201;-69
2023/02/08 08:56:11;;;;;;;23.23;13.80;;;1.70;99.90;;;1.61;69.55;103199.59;5065893;28;20202;-67
2023/02/08 08:58:42;;;;;;;23.93;13.70;;;1.70;99.90;;;1.62;70.27;103193.75;5061874;28;20213;-69
2023/02/08 09:01:12;;;;;;;20.63;13.03;;;1.70;99.90;;;1.63;69.45;103190.47;5060001;28;20202;-68
2023/02/08 09:03:40;;;;;;;21.97;11.97;;;1.70;99.90;;;1.65;70.07;103193.97;5062643;28;20214;-68
2023/02/08 09:06:09;;;;;;;25.40;13.63;;;1.70;99.90;;;1.67;69.38;103195.00;5062496;28;20619;-67
2023/02/08 09:08:37;;;;;;;21.00;13.17;;;1.80;99.90;;;1.73;69.75;103189.47;5064336;28;20201;-66
2023/02/08 09:11:07;;;;;;;22.13;12.07;;;1.80;99.90;;;1.78;69.42;103189.06;5064742;28;20198;-68
2023/02/08 09:13:36;;;;;;;23.87;13.43;;;1.90;99.90;;;1.83;69.09;103190.28;5063769;28;20628;-67
2023/02/08 09:16:12;;;;;;;27.83;14.90;;;1.90;99.90;;;1.90;70.05;103187.41;5068609;28;20224;-67
2023/02/08 09:18:41;;;;;;;23.10;12.83;;;2.00;99.90;;;1.96;68.64;103186.13;5070605;28;20233;-66
2023/02/08 09:21:13;;;;;;;27.93;13.90;;;2.00;99.90;;;2.00;68.50;103185.56;5065698;28;20205;-68
2023/02/08 09:23:42;;;;;;;26.53;13.40;;;2.10;99.90;;;1.99;69.18;103188.88;5062698;28;20618;-66
2023/02/08 09:26:13;;;;;;;23.87;13.33;;;2.10;99.90;;;2.00;69.14;103186.44;5053029;28;20666;-65
2023/02/08 09:28:42;;;;;;;20.07;12.20;;;2.10;99.90;;;2.00;68.83;103193.19;5063737;28;20255;-65
2023/02/08 09:31:18;;;;;;;22.50;12.17;;;2.10;99.90;;;2.02;69.31;103191.63;5060517;28;20242;-65
2023/02/08 09:33:46;;;;;;;24.00;12.63;;;2.20;99.90;;;2.06;68.48;103192.00;5069124;28;20240;-64
2023/02/08 09:36:16;;;;;;;22.80;13.57;;;2.20;99.90;;;2.12;68.28;103192.44;5062461;28;20217;-66
2023/02/08 09:38:48;;;;;;;25.03;13.13;;;2.20;99.90;;;2.18;67.87;103194.56;5070373;28;20206;-64
2023/02/08 09:41:35;;;;;;;23.60;13.63;;;2.30;99.90;;;2.22;67.45;103194.00;5066580;28;20214;-64
2023/02/08 09:44:19;;;;;;;24.87;12.57;;;2.30;99.90;;;2.23;68.46;103192.34;5064439;28;20201;-65
2023/02/08 09:46:57;;;;;;;23.83;13.50;;;2.40;99.90;;;2.32;67.66;103191.38;5063640;28;20202;-65
2023/02/08 09:49:31;;;;;;;22.33;13.20;;;2.40;99.90;;;2.38;67.62;103201.97;5060407;28;20224;-64
2023/02/08 09:52:05;;;;;;;17.97;12.00;;;2.50;99.90;;;2.44;67.55;103190.47;5058725;28;20190;-65
2023/02/08 09:54:39;;;;;;;20.63;12.57;;;2.60;99.90;;;2.49;66.80;103187.47;5061603;28;20576;-66
2023/02/08 09:57:17;;;;;;;19.73;12.57;;;2.60;99.90;;;2.57;66.34;103198.19;5061009;28;20204;-65
2023/02/08 09:59:54;;;;;;;22.07;11.67;;;2.70;99.90;;;2.61;65.36;103190.91;5066564;28;20283;-64
2023/02/08 10:02:29;;;;;;;19.93;11.73;;;2.70;99.90;;;2.67;65.38;103195.53;5050772;28;20704;-64
2023/02/08 10:05:03;;;;;;;20.37;11.67;;;2.70;99.90;;;2.73;65.24;103190.91;5048065;28;20662;-64
2023/02/08 10:07:33;;;;;;;18.70;11.67;;;2.80;99.90;;;2.81;64.78;103202.50;5049981;28;20207;-64
2023/02/08 10:10:05;;;;;;;16.43;9.53;;;2.80;99.90;;;2.85;63.74;103201.94;5053570;28;20348;-64
2023/02/08 10:12:44;;;;;;;18.70;10.77;;;2.90;99.90;;;2.83;63.57;103197.50;5051661;28;20210;-64
2023/02/08 10:15:27;;;;;;;13.63;8.60;;;2.80;99.90;;;2.77;61.79;103197.97;5050986;28;20197;-63
2023/02/08 10:18:34;;;;;;;16.70;10.07;;;2.80;99.90;;;2.71;62.05;103194.09;5054501;28;20262;-64
2023/02/08 10:21:24;;;;;;;20.30;9.93;;;2.80;99.90;;;2.66;61.42;103191.22;5052733;28;20274;-65
2023/02/08 10:24:14;;;;;;;18.17;9.90;;;2.70;99.90;;;2.60;61.31;103198.44;5046024;28;20551;-68
2023/02/08 10:26:47;;;;;;;19.37;10.53;;;2.60;99.90;;;2.53;61.32;103192.00;5052362;28;20218;-64
2023/02/08 10:30:05;;;;;;;13.53;8.77;;;2.60;99.90;;;2.52;61.78;103197.00;5053690;28;20222;-64
2023/02/08 10:33:03;;;;;;;14.40;9.23;;;2.60;99.90;;;2.47;61.25;103194.13;5054480;28;20209;-66
2023/02/08 10:35:36;;;;;;;16.80;9.13;;;2.60;99.90;;;2.46;60.66;103201.63;5058331;28;20241;-63
2023/02/08 10:38:28;;;;;;;17.03;9.37;;;2.60;99.90;;;2.41;61.31;103201.31;5061111;28;20202;-65